Time;durP1;ratioP1;P1;durP2;ratioP2;P2;SDS_P1;SDS_P2;PMS_P1;PMS_P2;Temp;Humidity;BMP_temperature;BMP_pressure;BME280_temperature;BME280_humidity;BME280_pressure;Samples;Min_cycle;Max_cycle;Signal;HPM_P1;HPM_P2
2022/03/16 00:01:43;;;;;;;38.63;27.43;;;10.80;99.90;;;;;;5052632;28;20457;-75
2022/03/16 00:04:09;;;;;;;41.60;28.50;;;10.50;99.90;;;;;;5053554;28;20551;-77
2022/03/16 00:06:35;;;;;;;41.47;26.50;;;10.50;99.90;;;;;;5054754;28;20241;-75
2022/03/16 00:09:01;;;;;;;40.53;26.87;;;10.60;99.90;;;;;;5055429;28;20532;-77
2022/03/16 00:11:26;;;;;;;48.50;29.47;;;10.60;99.90;;;;;;5055767;28;20204;-77
2022/03/16 00:13:52;;;;;;;40.40;27.60;;;10.50;99.90;;;;;;5055768;28;20191;-76
2022/03/16 00:16:17;;;;;;;42.13;28.20;;;10.60;99.90;;;;;;5051265;28;20190;-77
2022/03/16 00:18:43;;;;;;;47.37;29.57;;;10.70;99.90;;;;;;5036901;28;20265;-78
2022/03/16 00:21:09;;;;;;;42.77;28.90;;;10.70;99.90;;;;;;5055897;28;20837;-76
2022/03/16 00:23:35;;;;;;;48.47;30.30;;;10.70;99.90;;;;;;5054509;28;20208;-77
2022/03/16 00:26:00;;;;;;;39.80;26.57;;;10.50;99.90;;;;;;5058220;28;20436;-77
2022/03/16 00:28:26;;;;;;;44.10;29.30;;;10.60;99.90;;;;;;5054239;28;20191;-76
2022/03/16 00:30:51;;;;;;;44.63;29.07;;;10.60;99.90;;;;;;5039780;28;20248;-77
2022/03/16 00:33:17;;;;;;;42.60;27.30;;;10.70;99.90;;;;;;5053018;28;20211;-76
2022/03/16 00:35:43;;;;;;;40.63;27.30;;;10.80;99.90;;;;;;5039491;28;20699;-76
2022/03/16 00:38:09;;;;;;;49.70;30.23;;;10.80;99.90;;;;;;5054024;28;20710;-74
2022/03/16 00:40:36;;;;;;;42.50;29.43;;;10.80;99.90;;;;;;5053306;28;20241;-74
2022/03/16 00:43:02;;;;;;;49.40;30.10;;;10.70;99.90;;;;;;5053550;28;21004;-75
2022/03/16 00:45:27;;;;;;;43.17;31.27;;;10.80;99.90;;;;;;5054360;28;20476;-75
2022/03/16 00:47:53;;;;;;;48.87;32.30;;;10.80;99.90;;;;;;5055603;28;20984;-77
2022/03/16 00:50:19;;;;;;;45.23;29.10;;;10.60;99.90;;;;;;5055312;28;20187;-77
2022/03/16 00:52:44;;;;;;;44.70;29.33;;;10.70;99.90;;;;;;5037420;28;20935;-75
2022/03/16 00:55:10;;;;;;;46.70;29.40;;;10.80;99.90;;;;;;5055067;28;20231;-78
2022/03/16 00:57:36;;;;;;;43.80;30.60;;;10.70;99.90;;;;;;5050913;28;20680;-77
2022/03/16 01:00:04;;;;;;;49.07;29.97;;;10.70;99.90;;;;;;5057515;28;20260;-76
2022/03/16 01:02:30;;;;;;;47.30;30.93;;;10.50;99.90;;;;;;5056984;28;20222;-77
2022/03/16 01:04:55;;;;;;;47.77;31.30;;;10.40;99.90;;;;;;5040063;28;20583;-76
2022/03/16 01:07:21;;;;;;;47.20;28.60;;;10.60;99.90;;;;;;5057295;28;20212;-75
2022/03/16 01:09:47;;;;;;;50.90;28.70;;;10.70;99.90;;;;;;5055366;28;20184;-79
2022/03/16 01:12:12;;;;;;;47.87;29.83;;;10.80;99.90;;;;;;5055922;28;20237;-76
2022/03/16 01:14:38;;;;;;;44.07;30.27;;;10.70;99.90;;;;;;5057624;28;20630;-74
2022/03/16 01:17:04;;;;;;;48.10;31.60;;;10.80;99.90;;;;;;5051808;28;20186;-75
2022/03/16 01:19:29;;;;;;;48.17;28.73;;;10.90;99.90;;;;;;5060414;28;20197;-77
2022/03/16 01:21:55;;;;;;;53.90;31.87;;;10.80;99.90;;;;;;5042021;28;20553;-77
2022/03/16 01:24:21;;;;;;;46.47;30.73;;;10.80;99.90;;;;;;5053927;28;20652;-73
2022/03/16 01:26:47;;;;;;;44.13;31.30;;;10.90;99.90;;;;;;5057327;28;20218;-74
2022/03/16 01:29:12;;;;;;;51.37;30.63;;;10.80;99.90;;;;;;5057320;28;20183;-76
2022/03/16 01:31:38;;;;;;;50.60;30.73;;;10.80;99.90;;;;;;5056082;28;20195;-74
2022/03/16 01:34:04;;;;;;;50.10;32.00;;;10.40;99.90;;;;;;5057691;28;20295;-76
2022/03/16 01:36:30;;;;;;;47.33;31.00;;;10.60;99.90;;;;;;5056154;28;20192;-77
2022/03/16 01:38:56;;;;;;;52.63;31.07;;;10.50;99.90;;;;;;5058427;28;20845;-76
2022/03/16 01:41:24;;;;;;;50.77;30.87;;;10.50;99.90;;;;;;5058867;28;20673;-76
2022/03/16 01:43:56;;;;;;;46.00;29.83;;;10.60;99.90;;;;;;5057564;28;20179;-75
2022/03/16 01:46:22;;;;;;;46.73;30.13;;;10.60;99.90;;;;;;5054744;28;20429;-75
2022/03/16 01:48:50;;;;;;;48.50;31.07;;;10.70;99.90;;;;;;5059637;28;20924;-75
2022/03/16 01:51:15;;;;;;;46.13;30.60;;;10.70;99.90;;;;;;5059984;28;20475;-74
2022/03/16 01:53:41;;;;;;;45.60;28.43;;;10.70;99.90;;;;;;5056897;28;20477;-74
2022/03/16 01:56:08;;;;;;;51.93;32.07;;;10.70;99.90;;;;;;5057336;28;20198;-74
2022/03/16 01:58:34;;;;;;;53.60;31.07;;;10.60;99.90;;;;;;5057794;28;20560;-74
2022/03/16 02:01:00;;;;;;;52.83;33.00;;;10.50;99.90;;;;;;5057509;28;20601;-74
2022/03/16 02:03:25;;;;;;;54.30;31.77;;;10.40;99.90;;;;;;5058270;28;20550;-74
2022/03/16 02:05:51;;;;;;;49.80;31.70;;;10.50;99.90;;;;;;5053529;28;20649;-75
2022/03/16 02:08:18;;;;;;;52.30;33.50;;;10.50;99.90;;;;;;5053275;28;20196;-76
2022/03/16 02:10:43;;;;;;;49.70;32.10;;;10.50;99.90;;;;;;5060722;28;20552;-75
2022/03/16 02:13:10;;;;;;;53.83;31.47;;;10.40;99.90;;;;;;5056951;28;20540;-74
2022/03/16 02:15:36;;;;;;;51.93;31.80;;;10.40;99.90;;;;;;5056768;28;20286;-73
2022/03/16 02:18:02;;;;;;;53.90;32.67;;;10.30;99.90;;;;;;5059329;28;20552;-75
2022/03/16 02:20:28;;;;;;;55.70;33.53;;;10.30;99.90;;;;;;5056318;28;20540;-75
2022/03/16 02:23:02;;;;;;;56.43;33.60;;;10.20;99.90;;;;;;5061525;28;20202;-76
2022/03/16 02:25:29;;;;;;;61.63;33.67;;;10.30;99.90;;;;;;5039205;28;20179;-77
2022/03/16 02:27:56;;;;;;;63.93;34.53;;;10.40;99.90;;;;;;5056070;28;20500;-76
2022/03/16 02:30:26;;;;;;;61.73;34.80;;;10.30;99.90;;;;;;5053604;28;20445;-77
2022/03/16 02:32:53;;;;;;;62.10;33.87;;;10.30;99.90;;;;;;5056999;28;20450;-77
2022/03/16 02:35:19;;;;;;;59.10;32.73;;;10.40;99.90;;;;;;5056662;28;20967;-76
2022/03/16 02:37:45;;;;;;;60.60;33.57;;;10.20;99.90;;;;;;5055332;28;20978;-75
2022/03/16 02:40:17;;;;;;;54.97;32.70;;;10.20;99.90;;;;;;5054883;28;20456;-76
2022/03/16 02:42:42;;;;;;;59.37;34.40;;;10.20;99.90;;;;;;5052633;28;20202;-76
2022/03/16 02:45:08;;;;;;;64.87;33.77;;;10.30;99.90;;;;;;5054843;28;20913;-75
2022/03/16 02:47:34;;;;;;;63.53;35.23;;;10.30;99.90;;;;;;5042889;28;20183;-77
2022/03/16 02:50:01;;;;;;;62.80;34.83;;;10.30;99.90;;;;;;5057445;28;20187;-74
2022/03/16 02:52:27;;;;;;;54.50;32.67;;;10.30;99.90;;;;;;5055658;28;20465;-75
2022/03/16 02:54:52;;;;;;;61.63;35.30;;;10.30;99.90;;;;;;5055552;28;20450;-75
2022/03/16 02:57:18;;;;;;;56.13;33.17;;;10.20;99.90;;;;;;5040658;28;20469;-75
2022/03/16 02:59:44;;;;;;;68.10;33.83;;;10.10;99.90;;;;;;5054190;28;20211;-76
2022/03/16 03:02:11;;;;;;;58.30;33.63;;;10.20;99.90;;;;;;5056340;28;20321;-77
2022/03/16 03:04:37;;;;;;;59.47;33.67;;;10.20;99.90;;;;;;5054708;28;20183;-76
2022/03/16 03:07:03;;;;;;;57.30;33.00;;;10.30;99.90;;;;;;5053288;28;20478;-76
2022/03/16 03:09:29;;;;;;;62.60;33.57;;;10.30;99.90;;;;;;5051617;28;20199;-76
2022/03/16 03:11:56;;;;;;;71.70;36.50;;;10.20;99.90;;;;;;5043358;28;20438;-75
2022/03/16 03:14:22;;;;;;;61.03;33.53;;;10.20;99.90;;;;;;5056167;28;20187;-78
2022/03/16 03:16:48;;;;;;;59.47;34.13;;;10.20;99.90;;;;;;5055568;28;20422;-76
2022/03/16 03:19:13;;;;;;;62.47;33.90;;;10.10;99.90;;;;;;5057027;28;20214;-75
2022/03/16 03:21:39;;;;;;;59.63;33.27;;;10.30;99.90;;;;;;5058464;28;20180;-74
2022/03/16 03:24:05;;;;;;;64.57;34.33;;;10.30;99.90;;;;;;5059565;28;20179;-73
2022/03/16 03:26:32;;;;;;;59.67;31.60;;;10.10;99.90;;;;;;5054287;28;20184;-75
2022/03/16 03:28:57;;;;;;;64.30;32.50;;;10.20;99.90;;;;;;5062549;28;20320;-74
2022/03/16 03:31:23;;;;;;;57.20;31.23;;;10.20;99.90;;;;;;5060897;28;20483;-75
2022/03/16 03:33:49;;;;;;;61.30;31.60;;;10.20;99.90;;;;;;5058420;28;20199;-73
2022/03/16 03:36:14;;;;;;;59.50;32.70;;;10.10;99.90;;;;;;5040564;28;20197;-75
2022/03/16 03:38:40;;;;;;;60.57;34.17;;;10.10;99.90;;;;;;5060219;28;20207;-75
2022/03/16 03:41:05;;;;;;;63.30;34.57;;;10.10;99.90;;;;;;5055955;28;20566;-76
2022/03/16 03:43:31;;;;;;;58.87;32.43;;;10.10;99.90;;;;;;5058221;28;20207;-75
2022/03/16 03:45:56;;;;;;;59.63;33.17;;;10.10;99.90;;;;;;5059304;28;20188;-78
2022/03/16 03:48:22;;;;;;;62.33;32.40;;;10.30;99.90;;;;;;5043881;28;20192;-76
2022/03/16 03:50:48;;;;;;;60.83;34.30;;;10.10;99.90;;;;;;5058089;28;20235;-73
2022/03/16 03:53:15;;;;;;;65.53;32.90;;;10.10;99.90;;;;;;5063289;28;20207;-75
2022/03/16 03:55:41;;;;;;;64.00;33.30;;;10.10;99.90;;;;;;5058091;28;20195;-75
2022/03/16 03:58:06;;;;;;;60.60;31.33;;;10.20;99.90;;;;;;5060939;28;20469;-75
2022/03/16 04:00:32;;;;;;;62.20;33.63;;;10.20;99.90;;;;;;5038448;28;20752;-74
2022/03/16 04:02:58;;;;;;;60.93;35.07;;;10.10;99.90;;;;;;5061044;28;20259;-77
2022/03/16 04:05:23;;;;;;;62.73;32.60;;;10.00;99.90;;;;;;5058792;28;20188;-75
2022/03/16 04:07:50;;;;;;;65.10;33.90;;;10.00;99.90;;;;;;5055897;28;20631;-75
2022/03/16 04:10:15;;;;;;;66.73;35.10;;;10.00;99.90;;;;;;5058103;28;20183;-74
2022/03/16 04:12:41;;;;;;;61.00;31.83;;;9.90;99.90;;;;;;5057249;28;20515;-73
2022/03/16 04:15:07;;;;;;;61.30;31.93;;;9.90;99.90;;;;;;5043003;28;20818;-74
2022/03/16 04:17:33;;;;;;;63.90;32.63;;;9.90;99.90;;;;;;5043302;28;20221;-75
2022/03/16 04:19:58;;;;;;;59.73;30.77;;;9.90;99.90;;;;;;5056326;28;20441;-74
2022/03/16 04:22:28;;;;;;;58.03;33.17;;;9.90;99.90;;;;;;5040988;28;20286;-75
2022/03/16 04:24:54;;;;;;;65.30;33.90;;;9.90;99.90;;;;;;5059232;28;20182;-74
2022/03/16 04:27:20;;;;;;;62.00;32.20;;;10.00;99.90;;;;;;5056645;28;20947;-75
2022/03/16 04:29:46;;;;;;;61.97;31.13;;;10.10;99.90;;;;;;5040342;28;20608;-76
2022/03/16 04:32:12;;;;;;;63.27;32.47;;;10.10;99.90;;;;;;5055365;28;20207;-75
2022/03/16 04:34:38;;;;;;;61.33;32.33;;;10.00;99.90;;;;;;5058750;28;20448;-75
2022/03/16 04:37:04;;;;;;;57.33;32.07;;;9.90;99.90;;;;;;5043658;28;20190;-75
2022/03/16 04:39:29;;;;;;;61.80;33.90;;;9.80;99.90;;;;;;5055789;28;20751;-74
2022/03/16 04:41:55;;;;;;;57.47;32.27;;;9.90;99.90;;;;;;5057624;28;20499;-76
2022/03/16 04:44:20;;;;;;;57.13;32.47;;;9.90;99.90;;;;;;5058418;28;20183;-75
2022/03/16 04:46:46;;;;;;;56.97;31.17;;;9.90;99.90;;;;;;5057247;28;20163;-75
2022/03/16 04:49:12;;;;;;;62.90;30.60;;;10.00;99.90;;;;;;5059210;28;20708;-75
2022/03/16 04:51:37;;;;;;;56.97;29.30;;;9.90;99.90;;;;;;5056430;28;20237;-76
2022/03/16 04:54:03;;;;;;;51.90;30.90;;;10.00;99.90;;;;;;5056381;28;20297;-75
2022/03/16 04:56:29;;;;;;;52.53;30.60;;;10.00;99.90;;;;;;5056298;28;20881;-75
2022/03/16 04:58:55;;;;;;;54.00;30.20;;;10.10;99.90;;;;;;5055754;28;20457;-75
2022/03/16 05:01:20;;;;;;;55.77;30.63;;;10.10;99.90;;;;;;5057097;28;20187;-74
2022/03/16 05:03:46;;;;;;;61.20;33.30;;;10.00;99.90;;;;;;5058272;28;20248;-75
2022/03/16 05:06:11;;;;;;;57.90;31.27;;;10.10;99.90;;;;;;5057378;28;20180;-73
2022/03/16 05:08:37;;;;;;;53.83;32.60;;;10.20;99.90;;;;;;5044710;28;20176;-74
2022/03/16 05:11:04;;;;;;;50.50;28.77;;;10.20;99.90;;;;;;5057293;28;20183;-75
2022/03/16 05:13:30;;;;;;;48.83;29.37;;;10.20;99.90;;;;;;5040828;28;20540;-76
2022/03/16 05:15:55;;;;;;;49.20;28.50;;;10.10;99.90;;;;;;5056312;28;20564;-75
2022/03/16 05:18:23;;;;;;;48.90;29.47;;;10.10;99.90;;;;;;5054241;28;20461;-74
2022/03/16 05:20:49;;;;;;;53.43;29.20;;;10.10;99.90;;;;;;5059659;28;20179;-74
2022/03/16 05:23:14;;;;;;;50.40;29.57;;;10.10;99.90;;;;;;5057371;28;20978;-76
2022/03/16 05:25:41;;;;;;;52.67;31.67;;;10.10;99.90;;;;;;5039020;28;20444;-75
2022/03/16 05:28:07;;;;;;;47.00;28.50;;;10.10;99.90;;;;;;5040709;28;20176;-77
2022/03/16 05:30:33;;;;;;;44.83;27.70;;;10.10;99.90;;;;;;5057117;28;20449;-73
2022/03/16 05:33:00;;;;;;;46.07;28.20;;;10.00;99.90;;;;;;5059921;28;20223;-73
2022/03/16 05:35:26;;;;;;;45.07;28.63;;;10.00;99.90;;;;;;5054755;28;20922;-74
2022/03/16 05:37:52;;;;;;;40.50;25.93;;;10.00;99.90;;;;;;5055448;28;21443;-78
2022/03/16 05:40:18;;;;;;;44.83;26.90;;;10.10;99.90;;;;;;5056342;28;20445;-76
2022/03/16 05:42:44;;;;;;;47.53;29.47;;;10.10;99.90;;;;;;5057991;28;20282;-74
2022/03/16 05:45:10;;;;;;;47.50;28.10;;;10.00;99.90;;;;;;5056423;28;20509;-73
2022/03/16 05:47:36;;;;;;;50.73;28.20;;;10.10;99.90;;;;;;5039872;28;20192;-74
2022/03/16 05:50:02;;;;;;;41.83;27.27;;;10.10;99.90;;;;;;5054953;28;20474;-73
2022/03/16 05:52:29;;;;;;;47.90;28.40;;;10.10;99.90;;;;;;5059323;28;20222;-75
2022/03/16 05:54:56;;;;;;;42.43;26.50;;;10.00;99.90;;;;;;5059341;28;20473;-74
2022/03/16 05:57:22;;;;;;;43.00;26.63;;;10.00;99.90;;;;;;5056069;28;20466;-74
2022/03/16 05:59:48;;;;;;;44.57;27.80;;;9.90;99.90;;;;;;5057949;28;20601;-75
2022/03/16 06:02:17;;;;;;;41.03;26.57;;;10.00;99.90;;;;;;5038309;28;20602;-75
2022/03/16 06:04:44;;;;;;;44.60;26.10;;;10.00;99.90;;;;;;5041708;28;20426;-75
2022/03/16 06:07:10;;;;;;;38.93;26.63;;;10.00;99.90;;;;;;5041422;28;20437;-75
2022/03/16 06:09:36;;;;;;;40.60;27.00;;;10.10;99.90;;;;;;5057312;28;20500;-75
2022/03/16 06:12:03;;;;;;;42.00;25.97;;;10.10;99.90;;;;;;5054920;28;20596;-75
2022/03/16 06:14:30;;;;;;;39.27;24.90;;;10.00;99.90;;;;;;5054674;28;20426;-74
2022/03/16 06:16:56;;;;;;;37.40;25.57;;;10.00;99.90;;;;;;5054902;28;20439;-74
2022/03/16 06:19:22;;;;;;;38.30;27.33;;;10.10;99.90;;;;;;5054543;28;20843;-74
2022/03/16 06:21:48;;;;;;;38.87;25.83;;;10.10;99.90;;;;;;5053787;28;20511;-71
2022/03/16 06:24:15;;;;;;;38.83;24.60;;;9.90;99.90;;;;;;5052685;28;20457;-74
2022/03/16 06:26:41;;;;;;;36.93;24.53;;;10.00;99.90;;;;;;5055101;28;20422;-74
2022/03/16 06:29:07;;;;;;;39.80;25.53;;;10.00;99.90;;;;;;5053427;28;20444;-74
2022/03/16 06:31:33;;;;;;;44.13;27.30;;;10.00;99.90;;;;;;5056290;28;20827;-75
2022/03/16 06:33:59;;;;;;;39.90;25.70;;;10.00;99.90;;;;;;5033298;28;20590;-76
2022/03/16 06:36:26;;;;;;;38.87;25.47;;;10.00;99.90;;;;;;5039429;28;21049;-75
2022/03/16 06:38:58;;;;;;;42.80;26.87;;;10.00;99.90;;;;;;5056813;28;20498;-76
2022/03/16 06:41:24;;;;;;;34.53;24.50;;;9.90;99.90;;;;;;5054904;28;20433;-77
2022/03/16 06:43:49;;;;;;;38.93;25.20;;;10.00;99.90;;;;;;5040021;28;20511;-74
2022/03/16 06:46:15;;;;;;;41.30;26.03;;;10.10;99.90;;;;;;5056553;28;20187;-74
2022/03/16 06:48:41;;;;;;;40.33;27.33;;;10.10;99.90;;;;;;5054226;28;20198;-75
2022/03/16 06:51:07;;;;;;;39.87;26.83;;;10.00;99.90;;;;;;5056318;28;20490;-76
2022/03/16 06:53:33;;;;;;;43.03;27.63;;;10.00;99.90;;;;;;5025010;28;22048;-78
2022/03/16 06:55:59;;;;;;;39.40;25.50;;;10.10;99.90;;;;;;5055003;28;20243;-75
2022/03/16 06:58:25;;;;;;;42.70;24.57;;;10.10;99.90;;;;;;5059026;28;20552;-75
2022/03/16 07:00:50;;;;;;;41.07;26.07;;;10.20;99.90;;;;;;5054059;28;20183;-77
2022/03/16 07:03:16;;;;;;;37.97;25.87;;;10.30;99.90;;;;;;5057427;28;20203;-74
2022/03/16 07:05:42;;;;;;;36.40;25.77;;;10.20;99.90;;;;;;5053768;28;20563;-77
2022/03/16 07:08:10;;;;;;;39.40;26.30;;;10.10;99.90;;;;;;5056362;28;20183;-76
2022/03/16 07:10:40;;;;;;;41.20;28.00;;;10.10;99.90;;;;;;5057318;28;20746;-75
2022/03/16 07:13:06;;;;;;;36.37;25.63;;;10.30;99.90;;;;;;5053794;28;20468;-75
2022/03/16 07:15:32;;;;;;;37.57;24.43;;;10.30;99.90;;;;;;5056542;28;20430;-74
2022/03/16 07:17:58;;;;;;;40.63;26.87;;;10.30;99.90;;;;;;5040630;28;20520;-73
2022/03/16 07:20:24;;;;;;;39.63;26.47;;;10.40;99.90;;;;;;5055173;28;20468;-73
2022/03/16 07:23:07;;;;;;;39.30;25.50;;;10.30;99.90;;;;;;5040740;28;20480;-73
2022/03/16 07:25:33;;;;;;;35.60;23.80;;;10.30;99.90;;;;;;5051186;28;20458;-75
2022/03/16 07:27:59;;;;;;;39.30;27.00;;;10.30;99.90;;;;;;5053387;28;20429;-75
2022/03/16 07:30:25;;;;;;;47.93;29.57;;;10.30;99.90;;;;;;5056369;28;20865;-75
2022/03/16 07:32:51;;;;;;;44.00;27.07;;;10.30;99.90;;;;;;5053077;28;20208;-74
2022/03/16 07:35:16;;;;;;;36.87;24.80;;;10.30;99.90;;;;;;5053265;28;20191;-73
2022/03/16 07:37:42;;;;;;;35.50;23.30;;;10.40;99.90;;;;;;5055581;28;20899;-74
2022/03/16 07:40:09;;;;;;;37.40;25.37;;;10.50;99.90;;;;;;5037724;28;20179;-74
2022/03/16 07:42:36;;;;;;;37.57;24.97;;;10.60;99.90;;;;;;5054829;28;20448;-74
2022/03/16 07:45:05;;;;;;;38.30;25.43;;;10.60;99.90;;;;;;5055182;28;20429;-76
2022/03/16 07:47:31;;;;;;;37.90;24.67;;;10.70;99.90;;;;;;5053724;28;20820;-76
2022/03/16 07:49:57;;;;;;;38.43;24.63;;;10.80;99.90;;;;;;5051064;28;20469;-74
2022/03/16 07:52:23;;;;;;;35.00;23.60;;;10.80;99.90;;;;;;5055440;28;20207;-76
2022/03/16 07:54:49;;;;;;;38.57;24.20;;;10.70;99.90;;;;;;5034002;28;20196;-76
2022/03/16 07:57:16;;;;;;;38.57;25.10;;;10.80;99.90;;;;;;5051801;28;20440;-74
2022/03/16 07:59:42;;;;;;;39.80;25.60;;;10.90;99.90;;;;;;5058088;28;20336;-74
2022/03/16 08:02:08;;;;;;;40.43;25.80;;;10.90;99.90;;;;;;5051016;28;20454;-75
2022/03/16 08:04:34;;;;;;;38.57;24.60;;;10.90;99.90;;;;;;5056249;28;20460;-75
2022/03/16 08:06:59;;;;;;;37.07;23.30;;;11.00;99.90;;;;;;5058665;28;20175;-75
2022/03/16 08:09:25;;;;;;;35.57;24.27;;;11.00;99.90;;;;;;5054966;28;20179;-75
2022/03/16 08:11:51;;;;;;;44.50;24.00;;;11.00;99.90;;;;;;5055948;28;20200;-75
2022/03/16 08:14:16;;;;;;;38.93;25.83;;;11.00;99.90;;;;;;5058874;28;20292;-74
2022/03/16 08:16:42;;;;;;;33.40;22.87;;;11.00;99.90;;;;;;5057981;28;20180;-75
2022/03/16 08:19:08;;;;;;;44.90;26.80;;;10.90;99.90;;;;;;5052379;28;20223;-75
2022/03/16 08:21:33;;;;;;;39.63;25.00;;;11.00;99.90;;;;;;5059072;28;20179;-76
2022/03/16 08:23:59;;;;;;;40.30;24.93;;;11.00;99.90;;;;;;5060221;28;20171;-74
2022/03/16 08:26:25;;;;;;;40.60;27.40;;;11.10;99.90;;;;;;5060026;28;20574;-79
2022/03/16 08:28:51;;;;;;;37.50;24.07;;;11.20;99.90;;;;;;5059721;28;20279;-78
2022/03/16 08:31:17;;;;;;;39.63;24.13;;;11.20;99.90;;;;;;5059803;28;20876;-78
2022/03/16 08:33:43;;;;;;;37.70;23.70;;;10.90;99.90;;;;;;5060717;28;20514;-78
2022/03/16 08:36:09;;;;;;;39.57;25.83;;;11.00;99.90;;;;;;5053938;28;20478;-75
2022/03/16 08:38:38;;;;;;;46.13;28.20;;;11.10;99.90;;;;;;5043572;28;20299;-76
2022/03/16 08:41:06;;;;;;;42.60;27.70;;;11.20;99.90;;;;;;5058148;28;20500;-75
2022/03/16 08:43:32;;;;;;;44.70;26.33;;;11.30;99.90;;;;;;5059733;28;20476;-74
2022/03/16 08:45:58;;;;;;;42.17;26.93;;;11.40;99.90;;;;;;5057764;28;20437;-75
2022/03/16 08:48:24;;;;;;;47.07;27.20;;;11.50;99.90;;;;;;5059946;28;20198;-75
2022/03/16 08:50:50;;;;;;;45.10;26.43;;;11.60;99.90;;;;;;5057675;28;20800;-76
2022/03/16 08:53:16;;;;;;;41.97;27.63;;;11.60;99.90;;;;;;5059108;28;20480;-73
2022/03/16 08:55:41;;;;;;;45.63;28.70;;;11.70;99.90;;;;;;5044342;28;20188;-73
2022/03/16 08:58:07;;;;;;;47.50;26.57;;;11.70;99.90;;;;;;5043153;28;20207;-74
2022/03/16 09:00:33;;;;;;;49.87;28.17;;;11.80;99.90;;;;;;5037629;28;20673;-77
2022/03/16 09:02:59;;;;;;;53.67;31.47;;;11.70;99.90;;;;;;5058687;28;20213;-75
2022/03/16 09:05:25;;;;;;;46.90;28.03;;;11.70;99.90;;;;;;5055529;28;20666;-74
2022/03/16 09:07:51;;;;;;;39.37;26.27;;;11.80;99.90;;;;;;5056845;28;20517;-73
2022/03/16 09:10:16;;;;;;;52.30;29.43;;;11.80;99.90;;;;;;5041181;28;20188;-75
2022/03/16 09:12:52;;;;;;;61.90;29.60;;;11.80;99.90;;;;;;5061354;28;20291;-75
2022/03/16 09:15:17;;;;;;;45.07;25.47;;;11.80;99.90;;;;;;5043038;28;20200;-74
2022/03/16 09:17:43;;;;;;;44.47;27.00;;;11.90;99.90;;;;;;5057184;28;20465;-74
2022/03/16 09:20:09;;;;;;;55.57;28.03;;;11.80;99.90;;;;;;5056900;28;20172;-77
2022/03/16 09:22:34;;;;;;;47.43;28.20;;;11.90;99.90;;;;;;5042444;28;20206;-75
2022/03/16 09:25:00;;;;;;;49.10;28.57;;;11.90;99.90;;;;;;5058066;28;20190;-75
2022/03/16 09:27:26;;;;;;;44.80;28.20;;;12.00;99.90;;;;;;5057685;28;20775;-75
2022/03/16 09:29:54;;;;;;;46.67;26.50;;;12.00;99.90;;;;;;5055901;28;20180;-74
2022/03/16 09:32:21;;;;;;;52.53;29.57;;;12.00;99.90;;;;;;5057768;28;20460;-73
2022/03/16 09:34:50;;;;;;;47.83;27.90;;;12.10;99.90;;;;;;5057692;28;20471;-74
2022/03/16 09:37:16;;;;;;;47.60;27.17;;;12.10;99.90;;;;;;5055429;28;20968;-73
2022/03/16 09:39:41;;;;;;;47.43;26.70;;;12.20;99.90;;;;;;5058723;28;20441;-75
2022/03/16 09:42:09;;;;;;;50.10;26.87;;;12.20;99.90;;;;;;5058562;28;20203;-73
2022/03/16 09:44:36;;;;;;;42.90;27.47;;;12.20;99.90;;;;;;5059000;28;20175;-74
2022/03/16 09:47:03;;;;;;;47.20;25.67;;;12.20;99.90;;;;;;5056838;28;20484;-74
2022/03/16 09:49:29;;;;;;;46.80;27.83;;;12.10;99.90;;;;;;5055431;28;20535;-74
2022/03/16 09:51:56;;;;;;;49.03;27.57;;;12.20;99.90;;;;;;5057050;28;20460;-73
2022/03/16 09:54:23;;;;;;;39.70;26.37;;;12.30;99.90;;;;;;5056609;28;20484;-73
2022/03/16 09:56:48;;;;;;;39.50;24.70;;;12.40;99.90;;;;;;5057065;28;21035;-75
2022/03/16 09:59:15;;;;;;;38.63;27.60;;;12.40;99.90;;;;;;5057120;28;20462;-74
2022/03/16 10:01:44;;;;;;;36.43;23.13;;;12.40;99.90;;;;;;5035345;28;20449;-75
2022/03/16 10:04:10;;;;;;;44.03;27.00;;;12.50;99.90;;;;;;5056415;28;20958;-74
2022/03/16 10:06:42;;;;;;;41.37;25.70;;;12.50;99.90;;;;;;5053338;28;20533;-72
2022/03/16 10:15:13;;;;;;;44.17;24.43;;;12.60;99.90;;;;;;5056788;28;20448;-73
2022/03/16 10:18:00;;;;;;;41.33;25.10;;;12.50;99.90;;;;;;5056029;28;20770;-72
2022/03/16 10:20:33;;;;;;;37.10;24.27;;;12.60;99.90;;;;;;5037404;28;20948;-73
2022/03/16 10:23:05;;;;;;;38.10;24.17;;;12.70;99.90;;;;;;5037007;28;20476;-74
2022/03/16 10:25:36;;;;;;;40.60;25.03;;;12.80;99.90;;;;;;5055439;28;20423;-71
2022/03/16 10:28:10;;;;;;;40.20;24.10;;;12.80;99.90;;;;;;5054413;28;20441;-71
2022/03/16 10:30:50;;;;;;;40.43;24.50;;;12.80;99.90;;;;;;5052483;28;20426;-71
2022/03/16 10:33:16;;;;;;;39.33;25.90;;;12.90;99.90;;;;;;5057580;28;20540;-73
2022/03/16 10:35:56;;;;;;;40.53;25.83;;;13.00;99.90;;;;;;5054538;28;20845;-72
2022/03/16 10:38:22;;;;;;;34.10;22.43;;;13.00;99.90;;;;;;5056245;28;20476;-72
2022/03/16 10:40:53;;;;;;;35.57;23.87;;;13.10;99.90;;;;;;5056563;28;20441;-73
2022/03/16 10:46:34;;;;;;;38.83;23.90;;;13.20;99.90;;;;;;5055108;28;20490;-71
2022/03/16 10:49:10;;;;;;;31.77;22.07;;;13.30;99.90;;;;;;5053652;28;21107;-72
2022/03/16 10:51:37;;;;;;;33.70;23.10;;;13.40;99.90;;;;;;5049673;28;20448;-73
2022/03/16 10:54:05;;;;;;;33.90;21.90;;;13.50;99.90;;;;;;5054781;28;20449;-72
2022/03/16 10:56:32;;;;;;;39.17;24.10;;;13.50;99.90;;;;;;5057563;28;20432;-73
2022/03/16 10:58:59;;;;;;;33.47;21.53;;;13.50;99.90;;;;;;5055763;28;20572;-71
2022/03/16 11:01:26;;;;;;;30.90;22.07;;;13.60;99.90;;;;;;5054235;28;20468;-76
2022/03/16 11:03:53;;;;;;;33.50;22.93;;;13.70;99.90;;;;;;5055555;28;20476;-71
2022/03/16 11:06:22;;;;;;;34.67;21.90;;;13.70;99.90;;;;;;5039123;28;20484;-72
2022/03/16 11:08:49;;;;;;;30.73;21.50;;;13.80;99.90;;;;;;5056867;28;20448;-74
2022/03/16 11:14:04;;;;;;;28.47;20.57;;;14.00;99.90;;;;;;5052067;28;20432;-74
2022/03/16 11:16:31;;;;;;;26.73;19.60;;;14.10;99.90;;;;;;5054742;28;20490;-73
2022/03/16 11:18:59;;;;;;;28.80;19.47;;;14.10;99.90;;;;;;5053081;28;20473;-73
2022/03/16 11:21:30;;;;;;;31.20;21.33;;;14.10;99.90;;;;;;5040208;28;20438;-72
2022/03/16 11:24:16;;;;;;;28.80;19.30;;;14.10;99.90;;;;;;5053318;28;20461;-73
2022/03/16 11:26:56;;;;;;;31.30;19.60;;;14.20;99.90;;;;;;5030822;28;20424;-72
2022/03/16 11:29:58;;;;;;;26.20;18.70;;;14.20;99.90;;;;;;5058509;28;21132;-73
2022/03/16 11:32:24;;;;;;;26.53;19.60;;;14.30;99.90;;;;;;4998397;28;20645;-73
2022/03/16 11:34:59;;;;;;;32.53;20.30;;;14.30;99.90;;;;;;5046126;28;20525;-72
2022/03/16 11:37:48;;;;;;;25.90;18.10;;;14.30;99.90;;;;;;5056251;28;20441;-72
2022/03/16 11:40:22;;;;;;;29.57;19.60;;;14.30;99.90;;;;;;5060363;28;20430;-72
2022/03/16 11:43:11;;;;;;;27.63;19.63;;;14.40;99.90;;;;;;5055847;28;20534;-72
2022/03/16 11:45:53;;;;;;;29.60;20.13;;;14.30;99.90;;;;;;5038366;28;20427;-72
2022/03/16 11:51:14;;;;;;;26.47;18.63;;;14.60;99.90;;;;;;5057330;28;20776;-72
2022/03/16 11:53:54;;;;;;;28.30;20.47;;;14.60;99.90;;;;;;5054824;28;20525;-72
2022/03/16 11:56:23;;;;;;;29.57;20.80;;;14.60;99.90;;;;;;5055712;28;20429;-70
2022/03/16 11:58:54;;;;;;;27.43;18.77;;;14.60;99.90;;;;;;5043278;28;20465;-72
2022/03/16 12:01:39;;;;;;;29.10;18.70;;;14.60;99.90;;;;;;5037089;28;20454;-72
2022/03/16 12:04:16;;;;;;;29.50;20.90;;;14.50;99.90;;;;;;5057331;28;20417;-71
2022/03/16 12:07:02;;;;;;;33.70;19.77;;;14.50;99.90;;;;;;5052864;28;20795;-73
2022/03/16 12:09:33;;;;;;;34.80;21.63;;;14.60;99.90;;;;;;5056052;28;20509;-72
2022/03/16 12:15:11;;;;;;;31.37;20.67;;;14.60;99.90;;;;;;5054260;28;20512;-73
2022/03/16 12:17:53;;;;;;;29.50;20.17;;;14.60;99.90;;;;;;5058568;28;20465;-74
2022/03/16 12:20:22;;;;;;;27.20;19.50;;;14.70;99.90;;;;;;5057411;28;21002;-74
2022/03/16 12:22:52;;;;;;;33.40;21.93;;;14.70;99.90;;;;;;5058597;28;20452;-74
2022/03/16 12:25:26;;;;;;;30.93;20.23;;;14.50;99.90;;;;;;5056151;28;20430;-73
2022/03/16 12:31:21;;;;;;;27.37;20.10;;;14.60;99.90;;;;;;5020270;28;20432;-73
2022/03/16 12:33:52;;;;;;;30.83;19.87;;;14.80;99.90;;;;;;5060249;28;20453;-72
2022/03/16 12:36:21;;;;;;;29.90;18.93;;;14.90;99.90;;;;;;5057607;28;20291;-75
2022/03/16 12:39:03;;;;;;;30.20;19.80;;;15.00;99.90;;;;;;5056925;28;21289;-73
2022/03/16 12:44:18;;;;;;;30.93;21.20;;;15.00;99.90;;;;;;5058760;28;20468;-73
2022/03/16 12:47:06;;;;;;;33.40;22.33;;;15.00;99.90;;;;;;5057818;28;20914;-73
2022/03/16 12:49:38;;;;;;;29.77;20.90;;;14.70;99.90;;;;;;5055155;28;20425;-74
2022/03/16 12:52:05;;;;;;;31.57;20.73;;;14.90;99.90;;;;;;5058921;28;20463;-73
2022/03/16 12:54:33;;;;;;;27.97;19.70;;;15.00;99.90;;;;;;5055911;28;21056;-73